Howe, Indiana
Current Conditions -  °F | °C
As of 4:15 AM on Monday 24 Nov 2014 (Local Time) from KIRS Reporting Station
Light Rain Light Rain  
Wind Chill: 52°   Ceiling: 900
Heat Index: 52°   Visibility: 10mi
Dew Point: 50°   Wind: 16mph
Humidity: 94%   Direction: 220°SW
Pressure: 29.1"   Gusts: NA
Location:  41.72°N, 85.42°W
Report Text: KIRS 240915Z AUTO 22014KT 10SM -RA OVC009 11/10 A2910 RMK AO2
Loading
Personal Weather Stations






























Interactive Weather Map New forecast layout! Learn more

10-Day Weather Forecast

Advertisements
Track Severe Weather on mobile